createdAt,value
2023-08-07T00:02:12.312Z,42.54
2023-08-07T00:04:39.278Z,39.96
2023-08-07T00:07:06.732Z,42.16
2023-08-07T00:09:33.695Z,44.85
2023-08-07T00:12:01.050Z,44.63
2023-08-07T00:14:28.433Z,42.70
2023-08-07T00:16:58.089Z,45.91
2023-08-07T00:19:25.173Z,43.93
2023-08-07T00:21:52.761Z,44.30
2023-08-07T00:24:20.451Z,41.66
2023-08-07T00:26:47.837Z,43.99
2023-08-07T00:29:15.213Z,46.42
2023-08-07T00:31:42.691Z,45.18
2023-08-07T00:34:10.800Z,43.77
2023-08-07T00:36:38.206Z,44.46
2023-08-07T00:39:05.265Z,44.20
2023-08-07T00:41:32.693Z,46.01
2023-08-07T00:44:00.084Z,45.10
2023-08-07T00:46:28.113Z,45.27
2023-08-07T00:48:55.829Z,43.43
2023-08-07T00:51:24.767Z,42.88
2023-08-07T00:53:52.708Z,42.92
2023-08-07T00:56:20.245Z,43.94
2023-08-07T00:58:47.776Z,43.54
2023-08-07T01:01:15.819Z,43.73
2023-08-07T01:03:43.442Z,44.76
2023-08-07T01:06:10.831Z,45.59
2023-08-07T01:08:39.142Z,43.24
2023-08-07T01:11:12.011Z,43.94
2023-08-07T01:13:50.532Z,43.68
2023-08-07T01:16:32.692Z,40.02
2023-08-07T01:19:02.749Z,40.73
2023-08-07T01:21:30.170Z,42.02
2023-08-07T01:23:57.616Z,41.88
2023-08-07T01:26:25.043Z,42.80
2023-08-07T01:29:16.388Z,40.30
2023-08-07T01:31:44.227Z,41.13
2023-08-07T01:34:14.025Z,40.98
2023-08-07T01:36:41.764Z,41.54
2023-08-07T01:39:09.904Z,42.36
2023-08-07T01:41:37.445Z,42.38
2023-08-07T01:44:05.127Z,40.17
2023-08-07T01:46:32.633Z,40.73
2023-08-07T01:49:00.232Z,41.03
2023-08-07T01:51:27.243Z,42.87
2023-08-07T01:53:54.308Z,41.65
2023-08-07T01:56:21.694Z,41.56
2023-08-07T01:58:48.672Z,41.74
2023-08-07T02:01:16.265Z,44.39
2023-08-07T02:03:43.247Z,43.05
2023-08-07T02:06:10.738Z,42.52
2023-08-07T02:08:37.795Z,41.91
2023-08-07T02:11:05.895Z,42.90
2023-08-07T02:13:33.399Z,43.14
2023-08-07T02:16:01.288Z,42.51
2023-08-07T02:18:29.574Z,42.67
2023-08-07T02:20:56.664Z,44.26
2023-08-07T02:23:24.005Z,44.17
2023-08-07T02:25:52.385Z,44.37
2023-08-07T02:28:20.296Z,44.20
2023-08-07T02:30:51.903Z,43.23
2023-08-07T02:33:20.488Z,45.44
2023-08-07T02:35:47.978Z,44.24
2023-08-07T02:38:15.336Z,40.84
2023-08-07T02:40:42.328Z,42.20
2023-08-07T02:43:09.695Z,42.50
2023-08-07T02:45:38.088Z,43.92
2023-08-07T02:48:06.591Z,43.31
2023-08-07T02:50:34.081Z,44.72
2023-08-07T02:53:02.616Z,44.25
2023-08-07T02:55:29.988Z,42.62
2023-08-07T02:57:57.576Z,44.43
2023-08-07T03:00:24.959Z,43.35
2023-08-07T03:02:52.458Z,43.83
2023-08-07T03:05:19.981Z,45.72
2023-08-07T03:07:47.214Z,44.19
2023-08-07T03:10:14.378Z,44.39
2023-08-07T03:12:41.725Z,43.60
2023-08-07T03:15:09.780Z,43.34
2023-08-07T03:17:37.385Z,44.14
2023-08-07T03:20:05.209Z,42.77
2023-08-07T03:22:33.203Z,42.46
2023-08-07T03:25:00.793Z,42.96
2023-08-07T03:27:28.842Z,41.23
2023-08-07T03:29:56.369Z,42.58
2023-08-07T03:32:28.522Z,42.83
2023-08-07T03:34:56.220Z,42.78
2023-08-07T03:37:23.908Z,41.34
2023-08-07T03:39:51.741Z,42.44
2023-08-07T03:42:19.170Z,41.50
2023-08-07T03:44:47.632Z,43.04
2023-08-07T03:47:15.279Z,41.34
2023-08-07T03:49:42.734Z,41.20
2023-08-07T03:52:10.021Z,43.30
2023-08-07T03:54:37.413Z,45.14
2023-08-07T03:57:04.912Z,42.34
2023-08-07T03:59:32.376Z,42.70
2023-08-07T04:01:59.752Z,42.19
2023-08-07T04:04:27.151Z,40.55
2023-08-07T04:06:54.743Z,41.07
2023-08-07T04:09:22.549Z,43.83
2023-08-07T04:11:50.123Z,41.67
2023-08-07T04:14:17.463Z,44.02
2023-08-07T04:16:44.899Z,43.03
2023-08-07T04:19:12.707Z,42.43
2023-08-07T04:21:40.094Z,42.72
2023-08-07T04:24:11.843Z,41.20
2023-08-07T04:26:39.680Z,41.95
2023-08-07T04:29:07.603Z,41.93
2023-08-07T04:31:35.284Z,45.80
2023-08-07T04:34:02.816Z,43.32
2023-08-07T04:36:30.217Z,44.42
2023-08-07T04:38:57.669Z,42.54
2023-08-07T04:41:25.398Z,42.80
2023-08-07T04:43:52.792Z,40.80
2023-08-07T04:46:20.657Z,42.83
2023-08-07T04:48:48.748Z,42.21
2023-08-07T04:51:16.731Z,43.55
2023-08-07T04:53:44.117Z,42.88
2023-08-07T04:56:11.491Z,41.63
2023-08-07T04:58:38.962Z,40.47
2023-08-07T05:01:07.722Z,40.69
2023-08-07T05:03:35.202Z,42.11
2023-08-07T05:06:02.847Z,42.75
2023-08-07T05:08:30.324Z,40.54
2023-08-07T05:10:57.701Z,40.25
2023-08-07T05:13:25.074Z,41.03
2023-08-07T05:15:52.471Z,42.40
2023-08-07T05:18:20.362Z,41.98
2023-08-07T05:20:47.914Z,41.04
2023-08-07T05:23:15.300Z,41.04
2023-08-07T05:25:42.677Z,41.27
2023-08-07T05:28:10.036Z,41.50
2023-08-07T05:30:37.197Z,42.06
2023-08-07T05:33:04.637Z,40.81
2023-08-07T05:35:31.732Z,40.70
2023-08-07T05:37:59.177Z,40.53
2023-08-07T05:40:26.560Z,42.78
2023-08-07T05:42:53.995Z,41.20
2023-08-07T05:45:21.352Z,41.28
2023-08-07T05:47:48.777Z,42.08
2023-08-07T05:50:15.804Z,40.92
2023-08-07T05:52:43.231Z,42.54
2023-08-07T05:55:10.836Z,41.71
2023-08-07T05:57:38.204Z,42.03
2023-08-07T06:00:06.560Z,43.43
2023-08-07T06:02:39.294Z,41.83
2023-08-07T06:05:07.021Z,42.75
2023-08-07T06:07:34.520Z,42.57
2023-08-07T06:10:02.604Z,42.97
2023-08-07T06:12:30.055Z,44.24
2023-08-07T06:14:57.498Z,42.61
2023-08-07T06:17:24.954Z,41.92
2023-08-07T06:19:53.166Z,43.06
2023-08-07T06:22:20.580Z,42.96
2023-08-07T06:24:48.073Z,41.94
2023-08-07T06:27:15.918Z,41.91
2023-08-07T06:29:43.353Z,41.42
2023-08-07T06:32:11.827Z,40.89
2023-08-07T06:34:39.049Z,40.77
2023-08-07T06:37:06.849Z,42.57
2023-08-07T06:39:34.262Z,42.52
2023-08-07T06:42:01.890Z,41.71
2023-08-07T06:44:34.909Z,40.86
2023-08-07T06:47:02.473Z,41.03
2023-08-07T06:49:32.675Z,39.41
2023-08-07T06:52:00.085Z,40.42
2023-08-07T06:54:27.772Z,40.83
2023-08-07T06:56:54.760Z,39.86
2023-08-07T06:59:22.243Z,43.20
2023-08-07T07:01:49.813Z,42.54
2023-08-07T07:04:16.857Z,43.92
2023-08-07T07:06:44.235Z,43.28
2023-08-07T07:09:11.648Z,42.25
2023-08-07T07:11:39.029Z,40.46
2023-08-07T07:14:06.498Z,41.20
2023-08-07T07:16:34.041Z,41.93
2023-08-07T07:19:01.187Z,42.43
2023-08-07T07:21:28.578Z,40.53
2023-08-07T07:23:55.952Z,38.94
2023-08-07T07:26:23.342Z,40.84
2023-08-07T07:28:52.321Z,39.10
2023-08-07T07:31:19.891Z,40.50
2023-08-07T07:33:47.462Z,40.05
2023-08-07T07:36:18.929Z,41.52
2023-08-07T07:38:49.502Z,39.94
2023-08-07T07:41:17.179Z,41.55
2023-08-07T07:43:44.638Z,40.68
2023-08-07T07:46:12.825Z,40.62
2023-08-07T07:48:40.316Z,41.03
2023-08-07T07:51:07.860Z,41.71
2023-08-07T07:53:35.377Z,43.16
2023-08-07T07:56:02.410Z,39.89
2023-08-07T07:58:29.789Z,40.93
2023-08-07T08:00:57.774Z,39.57
2023-08-07T08:03:25.520Z,43.71
2023-08-07T08:05:53.335Z,43.28
2023-08-07T08:08:20.492Z,71.15
2023-08-07T08:10:49.043Z,86.89
2023-08-07T08:13:17.143Z,100.00
2023-08-07T08:15:45.451Z,100.00
2023-08-07T08:18:13.139Z,100.00
2023-08-07T08:20:40.438Z,100.00
2023-08-07T08:23:07.462Z,100.00
2023-08-07T08:25:34.465Z,100.00
2023-08-07T08:28:01.578Z,100.00
2023-08-07T08:30:29.532Z,100.00
2023-08-07T08:32:57.321Z,100.00
2023-08-07T08:35:24.346Z,100.00
2023-08-07T08:37:51.668Z,100.00
2023-08-07T08:40:20.623Z,100.00
2023-08-07T08:42:48.235Z,100.00
2023-08-07T08:45:16.923Z,100.00
2023-08-07T08:47:45.894Z,100.00
2023-08-07T08:50:15.613Z,100.00
2023-08-07T08:52:45.891Z,100.00
2023-08-07T08:55:15.085Z,100.00
2023-08-07T08:57:42.979Z,100.00
2023-08-07T09:00:22.417Z,100.00
2023-08-07T09:02:51.229Z,100.00
2023-08-07T09:05:21.229Z,100.00
2023-08-07T09:07:51.724Z,100.00
2023-08-07T09:10:21.699Z,94.39
2023-08-07T09:13:04.681Z,96.55
2023-08-07T09:15:33.717Z,100.00
2023-08-07T09:18:01.953Z,100.00
2023-08-07T09:20:29.639Z,100.00
2023-08-07T09:22:56.688Z,100.00
2023-08-07T09:25:34.813Z,100.00
2023-08-07T09:28:06.464Z,100.00
2023-08-07T09:30:36.071Z,100.00
2023-08-07T09:33:04.150Z,100.00
2023-08-07T09:35:33.247Z,100.00
2023-08-07T09:38:00.297Z,96.73
2023-08-07T09:40:27.471Z,88.09
2023-08-07T09:42:55.614Z,96.27
2023-08-07T09:45:27.961Z,89.61
2023-08-07T09:48:02.808Z,100.00
2023-08-07T09:50:31.298Z,100.00
2023-08-07T09:52:59.158Z,100.00
2023-08-07T09:55:27.637Z,98.12
2023-08-07T09:57:55.629Z,100.00
2023-08-07T10:00:23.015Z,100.00
2023-08-07T10:02:51.672Z,100.00
2023-08-07T10:05:20.347Z,96.70
2023-08-07T10:07:48.532Z,100.00
2023-08-07T10:10:16.007Z,100.00
2023-08-07T10:12:43.296Z,100.00
2023-08-07T10:15:11.065Z,100.00
2023-08-07T10:17:38.205Z,100.00
2023-08-07T10:20:07.382Z,100.00
2023-08-07T10:22:38.092Z,100.00
2023-08-07T10:25:07.708Z,94.39
2023-08-07T10:27:39.701Z,89.89
2023-08-07T10:30:13.823Z,98.75
2023-08-07T10:32:43.124Z,100.00
2023-08-07T10:35:11.210Z,100.00
2023-08-07T10:37:46.547Z,100.00
2023-08-07T10:40:14.469Z,100.00
2023-08-07T10:43:19.108Z,91.96
2023-08-07T10:45:46.510Z,100.00
2023-08-07T10:48:15.010Z,100.00
2023-08-07T10:51:12.057Z,100.00
2023-08-07T10:53:49.912Z,100.00
2023-08-07T10:56:35.519Z,100.00
2023-08-07T10:59:11.572Z,100.00
2023-08-07T11:01:44.037Z,95.29
2023-08-07T11:04:14.541Z,96.02
2023-08-07T11:06:44.268Z,100.00
2023-08-07T11:09:12.153Z,100.00
2023-08-07T11:11:50.204Z,100.00
2023-08-07T11:14:19.312Z,100.00
2023-08-07T11:16:48.729Z,100.00
2023-08-07T11:19:17.645Z,100.00
2023-08-07T11:21:45.685Z,100.00
2023-08-07T11:24:17.561Z,100.00
2023-08-07T11:26:47.696Z,100.00
2023-08-07T11:29:19.926Z,100.00
2023-08-07T11:31:47.603Z,100.00
2023-08-07T11:34:14.724Z,100.00
2023-08-07T11:36:45.317Z,100.00
2023-08-07T11:39:14.271Z,100.00
2023-08-07T11:41:42.138Z,100.00
2023-08-07T11:44:09.368Z,100.00
2023-08-07T11:46:37.212Z,100.00
2023-08-07T11:49:08.813Z,100.00
2023-08-07T11:51:36.342Z,100.00
2023-08-07T11:54:04.287Z,100.00
2023-08-07T11:56:32.735Z,100.00
2023-08-07T11:59:00.037Z,100.00
2023-08-07T12:01:28.058Z,100.00
2023-08-07T12:04:10.924Z,100.00
2023-08-07T12:06:41.606Z,100.00
2023-08-07T12:09:13.929Z,100.00
2023-08-07T12:11:41.226Z,100.00
2023-08-07T12:14:08.600Z,100.00
2023-08-07T12:16:38.675Z,100.00
2023-08-07T12:19:05.624Z,100.00
2023-08-07T12:21:34.555Z,100.00
2023-08-07T12:24:01.900Z,100.00
2023-08-07T12:26:29.178Z,100.00
2023-08-07T12:28:56.234Z,100.00
2023-08-07T12:31:23.430Z,97.31
2023-08-07T12:33:51.196Z,100.00
2023-08-07T12:36:20.857Z,100.00
2023-08-07T12:38:48.566Z,100.00
2023-08-07T12:43:46.674Z,100.00
2023-08-07T12:48:43.606Z,100.00
2023-08-07T12:51:10.606Z,100.00
2023-08-07T12:53:37.588Z,100.00
2023-08-07T12:56:06.564Z,100.00
2023-08-07T12:58:33.554Z,100.00
2023-08-07T13:01:01.059Z,100.00
2023-08-07T13:03:28.226Z,100.00
2023-08-07T13:05:55.673Z,100.00
2023-08-07T13:08:23.093Z,100.00
2023-08-07T13:10:50.731Z,100.00
2023-08-07T13:13:18.215Z,100.00
2023-08-07T13:15:45.251Z,100.00
2023-08-07T13:18:12.321Z,100.00
2023-08-07T13:20:39.748Z,100.00
2023-08-07T13:23:07.621Z,100.00
2023-08-07T13:25:35.532Z,100.00
2023-08-07T13:28:07.583Z,100.00
2023-08-07T13:30:37.340Z,100.00
2023-08-07T13:33:05.491Z,100.00
2023-08-07T13:35:34.587Z,100.00
2023-08-07T13:38:06.343Z,100.00
2023-08-07T13:40:34.597Z,100.00
2023-08-07T13:43:04.235Z,99.23
2023-08-07T13:45:31.600Z,96.91
2023-08-07T13:47:59.008Z,99.71
2023-08-07T13:50:26.189Z,82.07
2023-08-07T13:53:04.107Z,75.49
2023-08-07T13:55:41.339Z,68.41
2023-08-07T13:58:08.391Z,73.73
2023-08-07T14:00:36.612Z,72.28
2023-08-07T14:03:04.724Z,71.08
2023-08-07T14:05:31.766Z,77.75
2023-08-07T14:07:59.046Z,69.06
2023-08-07T14:10:26.165Z,72.13
2023-08-07T14:12:53.687Z,72.82
2023-08-07T14:15:21.507Z,89.85
2023-08-07T14:17:48.608Z,84.31
2023-08-07T14:20:15.685Z,100.00
2023-08-07T14:22:42.873Z,90.86
2023-08-07T14:25:10.160Z,86.50
2023-08-07T14:27:37.537Z,86.95
2023-08-07T14:30:05.030Z,89.03
2023-08-07T14:32:32.016Z,85.34
2023-08-07T14:34:59.130Z,91.55
2023-08-07T14:37:26.166Z,90.10
2023-08-07T14:39:53.774Z,92.92
2023-08-07T14:42:21.146Z,85.46
2023-08-07T14:44:48.930Z,87.83
2023-08-07T14:47:16.506Z,97.91
2023-08-07T14:49:44.361Z,100.00
2023-08-07T14:52:11.460Z,100.00
2023-08-07T14:54:38.871Z,100.00
2023-08-07T14:57:06.007Z,100.00
2023-08-07T14:59:33.441Z,100.00
2023-08-07T15:02:00.651Z,86.91
2023-08-07T15:04:28.231Z,100.00
2023-08-07T15:06:57.973Z,90.98
2023-08-07T15:09:26.493Z,93.05
2023-08-07T15:11:53.940Z,82.18
2023-08-07T15:14:21.435Z,99.79
2023-08-07T15:16:48.844Z,100.00
2023-08-07T15:19:15.849Z,100.00
2023-08-07T15:21:43.355Z,92.99
2023-08-07T15:24:10.348Z,93.09
2023-08-07T15:26:37.843Z,96.82
2023-08-07T15:29:05.528Z,100.00
2023-08-07T15:31:33.496Z,100.00
2023-08-07T15:34:00.642Z,94.42
2023-08-07T15:36:27.736Z,100.00
2023-08-07T15:38:54.746Z,100.00
2023-08-07T15:41:22.754Z,100.00
2023-08-07T15:43:52.989Z,92.14
2023-08-07T15:46:20.051Z,93.25
2023-08-07T15:48:47.187Z,96.61
2023-08-07T15:51:14.407Z,94.73
2023-08-07T15:53:41.499Z,91.84
2023-08-07T15:56:08.685Z,100.00
2023-08-07T15:58:36.194Z,100.00
2023-08-07T16:01:03.263Z,98.38
2023-08-07T16:03:30.288Z,100.00
2023-08-07T16:05:57.759Z,98.94
2023-08-07T16:08:24.952Z,100.00
2023-08-07T16:10:53.833Z,100.00
2023-08-07T16:13:21.384Z,100.00
2023-08-07T16:15:48.408Z,100.00
2023-08-07T16:18:15.432Z,100.00
2023-08-07T16:20:42.828Z,100.00
2023-08-07T16:23:09.823Z,100.00
2023-08-07T16:25:36.898Z,97.41
2023-08-07T16:28:05.676Z,96.19
2023-08-07T16:30:32.946Z,88.23
2023-08-07T16:32:59.953Z,93.55
2023-08-07T16:35:27.193Z,91.64
2023-08-07T16:37:54.193Z,88.94
2023-08-07T16:40:21.299Z,96.82
2023-08-07T16:42:48.259Z,95.60
2023-08-07T16:45:15.871Z,95.58
2023-08-07T16:47:43.144Z,93.43
2023-08-07T16:50:12.921Z,88.13
2023-08-07T16:52:40.276Z,91.74
2023-08-07T16:55:08.485Z,100.00
2023-08-07T16:57:35.517Z,94.50
2023-08-07T17:00:05.152Z,91.04
2023-08-07T17:02:32.186Z,94.84
2023-08-07T17:04:59.683Z,100.00
2023-08-07T17:07:26.707Z,100.00
2023-08-07T17:09:54.071Z,88.64
2023-08-07T17:12:21.119Z,94.02
2023-08-07T17:14:48.851Z,88.06
2023-08-07T17:17:15.805Z,93.31
2023-08-07T17:19:42.788Z,94.34
2023-08-07T17:22:09.797Z,93.03
2023-08-07T17:24:36.829Z,90.09
2023-08-07T17:27:04.088Z,91.83
2023-08-07T17:29:31.288Z,92.39
2023-08-07T17:31:59.574Z,94.25
2023-08-07T17:34:26.982Z,100.00
2023-08-07T17:36:54.394Z,89.33
2023-08-07T17:39:21.496Z,87.02
2023-08-07T17:41:48.886Z,93.37
2023-08-07T17:44:16.294Z,95.46
2023-08-07T17:46:43.829Z,93.94
2023-08-07T17:49:11.507Z,95.46
2023-08-07T17:51:38.937Z,95.82
2023-08-07T17:54:05.951Z,95.70
2023-08-07T17:56:34.814Z,93.56
2023-08-07T17:59:03.337Z,93.17
2023-08-07T18:01:30.935Z,90.51
2023-08-07T18:04:01.337Z,91.65
2023-08-07T18:06:29.498Z,100.00
2023-08-07T18:08:57.262Z,88.58
2023-08-07T18:11:24.505Z,100.00
2023-08-07T18:13:51.537Z,100.00
2023-08-07T18:16:19.104Z,100.00
2023-08-07T18:18:46.104Z,100.00
2023-08-07T18:21:13.341Z,93.55
2023-08-07T18:23:40.334Z,82.64
2023-08-07T18:26:07.814Z,91.25
2023-08-07T18:28:35.079Z,84.28
2023-08-07T18:31:02.425Z,75.87
2023-08-07T18:33:29.718Z,79.55
2023-08-07T18:36:00.899Z,86.50
2023-08-07T18:38:31.441Z,74.98
2023-08-07T18:40:58.811Z,86.27
2023-08-07T18:43:26.327Z,85.74
2023-08-07T18:45:53.946Z,88.34
2023-08-07T18:48:21.081Z,79.23
2023-08-07T18:50:48.607Z,80.48
2023-08-07T18:53:16.090Z,81.36
2023-08-07T18:55:43.554Z,81.32
2023-08-07T18:58:10.616Z,81.51
2023-08-07T19:00:37.660Z,81.89
2023-08-07T19:03:05.759Z,84.19
2023-08-07T19:05:33.289Z,86.27
2023-08-07T19:08:00.322Z,92.43
2023-08-07T19:10:27.385Z,91.68
2023-08-07T19:12:54.854Z,89.31
2023-08-07T19:15:21.982Z,88.63
2023-08-07T19:17:49.614Z,84.86
2023-08-07T19:20:16.923Z,89.56
2023-08-07T19:22:43.908Z,86.87
2023-08-07T19:25:11.438Z,86.33
2023-08-07T19:27:38.467Z,89.33
2023-08-07T19:30:06.693Z,89.68
2023-08-07T19:32:33.688Z,88.55
2023-08-07T19:35:00.895Z,89.41
2023-08-07T19:37:27.989Z,88.09
2023-08-07T19:39:55.602Z,85.00
2023-08-07T19:42:22.857Z,89.72
2023-08-07T19:44:50.277Z,92.35
2023-08-07T19:47:30.324Z,93.18
2023-08-07T19:50:03.509Z,89.89
2023-08-07T19:52:31.050Z,94.95
2023-08-07T19:54:58.227Z,96.66
2023-08-07T19:57:25.631Z,100.00
2023-08-07T19:59:53.020Z,98.17
2023-08-07T20:02:20.657Z,95.44
2023-08-07T20:04:48.577Z,99.29
2023-08-07T20:07:15.696Z,97.42
2023-08-07T20:09:43.794Z,100.00
2023-08-07T20:12:11.547Z,95.62
2023-08-07T20:14:39.113Z,93.56
2023-08-07T20:17:07.511Z,97.63
2023-08-07T20:19:35.055Z,98.28
2023-08-07T20:22:02.263Z,100.00
2023-08-07T20:24:29.650Z,97.33
2023-08-07T20:26:58.297Z,98.65
2023-08-07T20:29:25.950Z,100.00
2023-08-07T20:31:53.476Z,100.00
2023-08-07T20:34:20.610Z,100.00
2023-08-07T20:36:47.827Z,94.63
2023-08-07T20:39:15.520Z,100.00
2023-08-07T20:41:44.277Z,98.22
2023-08-07T20:44:11.336Z,100.00
2023-08-07T20:46:38.841Z,100.00
2023-08-07T20:49:06.264Z,100.00
2023-08-07T20:51:34.176Z,100.00
2023-08-07T20:54:01.258Z,97.05
2023-08-07T20:56:28.437Z,97.53
2023-08-07T20:58:55.881Z,100.00
2023-08-07T21:01:23.279Z,100.00
2023-08-07T21:03:50.431Z,98.00
2023-08-07T21:06:17.501Z,100.00
2023-08-07T21:08:44.562Z,100.00
2023-08-07T21:11:11.575Z,100.00
2023-08-07T21:13:39.678Z,97.48
2023-08-07T21:16:06.874Z,100.00
2023-08-07T21:18:33.967Z,100.00
2023-08-07T21:21:01.117Z,100.00
2023-08-07T21:23:28.174Z,100.00
2023-08-07T21:25:55.680Z,100.00
2023-08-07T21:28:22.710Z,95.69
2023-08-07T21:30:50.770Z,100.00
2023-08-07T21:33:18.020Z,93.85
2023-08-07T21:35:47.190Z,100.00
2023-08-07T21:38:14.925Z,100.00
2023-08-07T21:40:41.882Z,100.00
2023-08-07T21:43:09.065Z,100.00
2023-08-07T21:45:36.121Z,100.00
2023-08-07T21:48:04.023Z,100.00
2023-08-07T21:50:31.073Z,98.99
2023-08-07T21:52:58.075Z,97.02
2023-08-07T21:55:25.141Z,93.31
2023-08-07T21:57:52.570Z,100.00
2023-08-07T22:00:21.291Z,96.08
2023-08-07T22:02:48.583Z,97.58
2023-08-07T22:05:18.897Z,97.60
2023-08-07T22:07:47.202Z,100.00
2023-08-07T22:10:16.218Z,100.00
2023-08-07T22:12:43.900Z,100.00
2023-08-07T22:15:12.166Z,100.00
2023-08-07T22:17:39.715Z,97.74
2023-08-07T22:20:08.551Z,100.00
2023-08-07T22:22:35.636Z,100.00
2023-08-07T22:25:03.049Z,100.00
2023-08-07T22:27:30.477Z,100.00
2023-08-07T22:29:59.475Z,100.00
2023-08-07T22:32:26.502Z,100.00
2023-08-07T22:34:53.840Z,100.00
2023-08-07T22:37:21.907Z,100.00
2023-08-07T22:39:49.379Z,100.00
2023-08-07T22:42:16.490Z,100.00
2023-08-07T22:44:43.864Z,100.00
2023-08-07T22:47:11.259Z,100.00
2023-08-07T22:49:38.651Z,100.00
2023-08-07T22:52:05.898Z,100.00
2023-08-07T22:54:33.313Z,100.00
2023-08-07T22:57:00.275Z,100.00
2023-08-07T22:59:27.834Z,100.00
2023-08-07T23:01:57.159Z,100.00
2023-08-07T23:04:24.592Z,100.00
2023-08-07T23:06:51.531Z,100.00
2023-08-07T23:09:20.600Z,100.00
2023-08-07T23:11:48.068Z,100.00
2023-08-07T23:14:15.229Z,100.00
2023-08-07T23:16:42.676Z,100.00
2023-08-07T23:19:11.580Z,100.00
2023-08-07T23:21:40.869Z,100.00
2023-08-07T23:24:09.990Z,100.00
2023-08-07T23:26:37.125Z,100.00
2023-08-07T23:29:04.146Z,100.00
2023-08-07T23:31:31.238Z,100.00
2023-08-07T23:33:59.033Z,100.00
2023-08-07T23:36:26.447Z,100.00
2023-08-07T23:38:53.853Z,100.00
2023-08-07T23:41:22.483Z,100.00
2023-08-07T23:43:50.482Z,100.00
2023-08-07T23:46:19.512Z,100.00
2023-08-07T23:48:47.532Z,100.00
2023-08-07T23:51:15.066Z,100.00
2023-08-07T23:53:42.099Z,100.00
2023-08-07T23:56:10.928Z,100.00
2023-08-07T23:58:38.076Z,100.00
